Time;durP1;ratioP1;P1;durP2;ratioP2;P2;SDS_P1;SDS_P2;PMS_P1;PMS_P2;Temp;Humidity;BMP_temperature;BMP_pressure;BME280_temperature;BME280_humidity;BME280_pressure;Samples;Min_cycle;Max_cycle;Signal;HPM_P1;HPM_P2
2022/09/01 00:00:41;;;;;;;2.50;1.45;;;;;;;;;;5046379;28;20075;-72
2022/09/01 00:03:12;;;;;;;2.10;1.25;;;;;;;;;;5047830;28;20083;-73
2022/09/01 00:05:40;;;;;;;2.38;1.60;;;;;;;;;;5050012;28;20087;-73
2022/09/01 00:08:09;;;;;;;2.17;1.52;;;;;;;;;;5051153;28;20052;-72
2022/09/01 00:10:38;;;;;;;3.15;1.75;;;;;;;;;;5049528;28;20433;-73
2022/09/01 00:13:07;;;;;;;4.35;2.33;;;;;;;;;;5052468;28;20069;-72
2022/09/01 00:15:35;;;;;;;2.92;1.45;;;;;;;;;;5046677;28;20500;-73
2022/09/01 00:18:04;;;;;;;5.15;2.10;;;;;;;;;;5050011;28;20156;-72
2022/09/01 00:20:34;;;;;;;2.78;2.28;;;;;;;;;;5048069;28;20068;-72
2022/09/01 00:23:03;;;;;;;3.42;1.73;;;;;;;;;;5051069;28;20045;-73
2022/09/01 00:25:31;;;;;;;2.45;1.77;;;;;;;;;;5050832;28;20080;-72
2022/09/01 00:28:03;;;;;;;3.15;1.40;;;;;;;;;;5049314;28;20053;-71
2022/09/01 00:30:32;;;;;;;3.42;2.17;;;;;;;;;;5047788;28;20045;-72
2022/09/01 00:33:01;;;;;;;3.80;2.17;;;;;;;;;;5047820;28;20412;-72
2022/09/01 00:35:29;;;;;;;5.18;1.75;;;;;;;;;;5047587;28;20040;-73
2022/09/01 00:38:05;;;;;;;4.63;2.47;;;;;;;;;;5011320;28;20054;-73
2022/09/01 00:40:34;;;;;;;5.05;1.63;;;;;;;;;;5025471;28;20103;-73
2022/09/01 00:43:11;;;;;;;6.90;2.33;;;;;;;;;;5029748;28;20128;-73
2022/09/01 00:45:40;;;;;;;2.97;1.50;;;;;;;;;;5029286;28;20049;-73
2022/09/01 00:48:09;;;;;;;4.55;1.90;;;;;;;;;;5028167;28;20045;-72
2022/09/01 00:50:39;;;;;;;3.83;1.95;;;;;;;;;;5024930;28;20053;-72
2022/09/01 00:53:10;;;;;;;4.28;2.10;;;;;;;;;;5029548;28;20511;-73
2022/09/01 00:55:39;;;;;;;6.10;3.08;;;;;;;;;;5029131;28;20057;-71
2022/09/01 00:58:08;;;;;;;3.83;1.90;;;;;;;;;;5029774;28;20053;-73
2022/09/01 01:00:48;;;;;;;3.00;1.92;;;;;;;;;;5026134;28;20049;-73
2022/09/01 01:03:17;;;;;;;2.33;1.45;;;;;;;;;;5029954;28;20507;-73
2022/09/01 01:05:52;;;;;;;2.92;1.58;;;;;;;;;;5028627;28;20133;-74
2022/09/01 01:08:29;;;;;;;4.68;2.58;;;;;;;;;;5027211;28;20505;-72
2022/09/01 01:10:58;;;;;;;2.75;1.77;;;;;;;;;;5027992;28;20087;-73
2022/09/01 01:13:27;;;;;;;3.80;1.83;;;;;;;;;;5030661;28;20640;-73
2022/09/01 01:15:56;;;;;;;2.42;1.38;;;;;;;;;;5040787;23;20420;-82
2022/09/01 01:18:24;;;;;;;4.90;2.30;;;;;;;;;;5033305;23;20088;-72
2022/09/01 01:23:49;;;;;;;3.85;1.73;;;;;;;;;;5019964;28;20530;-72
2022/09/01 01:26:19;;;;;;;4.32;2.00;;;;;;;;;;5026275;28;20517;-72
2022/09/01 01:28:47;;;;;;;2.50;1.67;;;;;;;;;;5030027;28;20088;-72
2022/09/01 01:31:21;;;;;;;5.50;2.35;;;;;;;;;;5027343;28;20080;-72
2022/09/01 01:33:51;;;;;;;4.28;2.15;;;;;;;;;;5018952;28;20053;-73
2022/09/01 01:36:31;;;;;;;3.72;2.33;;;;;;;;;;5028447;28;20135;-73
2022/09/01 01:39:02;;;;;;;3.83;1.95;;;;;;;;;;5029077;28;20716;-73
2022/09/01 01:41:32;;;;;;;3.35;1.88;;;;;;;;;;5024754;28;21275;-72
2022/09/01 01:44:03;;;;;;;4.40;2.13;;;;;;;;;;5026968;28;20043;-72
2022/09/01 01:46:31;;;;;;;3.38;2.20;;;;;;;;;;5028109;28;20057;-71
2022/09/01 01:49:01;;;;;;;2.88;1.60;;;;;;;;;;5027745;28;20413;-72
2022/09/01 01:51:31;;;;;;;3.38;2.25;;;;;;;;;;5024771;28;20045;-71
2022/09/01 01:54:06;;;;;;;2.78;1.83;;;;;;;;;;5026198;28;20539;-72
2022/09/01 01:56:37;;;;;;;1.33;1.08;;;;;;;;;;5028242;28;20132;-73
2022/09/01 01:59:06;;;;;;;3.15;1.95;;;;;;;;;;5023871;28;20088;-72
2022/09/01 02:01:38;;;;;;;2.80;1.77;;;;;;;;;;5026137;28;20119;-73
2022/09/01 02:04:06;;;;;;;4.97;2.22;;;;;;;;;;5028178;28;20045;-71
2022/09/01 02:06:35;;;;;;;2.72;1.40;;;;;;;;;;5025039;28;20520;-71
2022/09/01 02:09:04;;;;;;;1.52;1.02;;;;;;;;;;5025337;28;20128;-71
2022/09/01 02:11:36;;;;;;;3.17;1.73;;;;;;;;;;5025238;28;20045;-71
2022/09/01 02:14:06;;;;;;;3.10;2.00;;;;;;;;;;5026625;28;20077;-72
2022/09/01 02:16:35;;;;;;;2.65;1.60;;;;;;;;;;5018239;28;20103;-71
2022/09/01 02:19:05;;;;;;;4.25;2.08;;;;;;;;;;5028934;28;20049;-71
2022/09/01 02:21:34;;;;;;;3.53;1.55;;;;;;;;;;5026784;28;20095;-71
2022/09/01 02:24:04;;;;;;;3.17;1.85;;;;;;;;;;5026320;28;20083;-71
2022/09/01 02:26:37;;;;;;;3.58;1.85;;;;;;;;;;5027583;28;20559;-71
2022/09/01 02:29:08;;;;;;;1.83;1.40;;;;;;;;;;5026357;28;20461;-71
2022/09/01 02:31:38;;;;;;;2.78;1.65;;;;;;;;;;5021812;28;20522;-71
2022/09/01 02:34:09;;;;;;;2.50;1.80;;;;;;;;;;5023855;28;20563;-72
2022/09/01 02:36:46;;;;;;;2.70;1.67;;;;;;;;;;5024259;28;20104;-71
2022/09/01 02:39:14;;;;;;;2.83;1.48;;;;;;;;;;5027964;28;20124;-71
2022/09/01 02:41:43;;;;;;;4.18;1.98;;;;;;;;;;5027878;28;20156;-71
2022/09/01 02:44:13;;;;;;;2.45;1.73;;;;;;;;;;5027531;28;20168;-71
2022/09/01 02:46:42;;;;;;;3.17;1.95;;;;;;;;;;5021752;28;20087;-71
2022/09/01 02:49:16;;;;;;;3.30;1.83;;;;;;;;;;5027843;28;20053;-71
2022/09/01 02:51:45;;;;;;;3.88;1.73;;;;;;;;;;5036404;28;20084;-71
2022/09/01 02:54:16;;;;;;;4.97;2.13;;;;;;;;;;5030355;28;20042;-71
2022/09/01 02:56:46;;;;;;;2.90;1.50;;;;;;;;;;5024735;28;20129;-71
2022/09/01 02:59:16;;;;;;;2.25;1.60;;;;;;;;;;5027438;28;20061;-71
2022/09/01 03:01:45;;;;;;;3.08;1.65;;;;;;;;;;5022832;28;20049;-71
2022/09/01 03:04:14;;;;;;;2.15;1.30;;;;;;;;;;5020772;28;20042;-72
2022/09/01 03:06:43;;;;;;;2.70;1.88;;;;;;;;;;5023468;28;20045;-71
2022/09/01 03:09:13;;;;;;;3.90;1.67;;;;;;;;;;5026816;28;20045;-71
2022/09/01 03:11:43;;;;;;;2.55;1.50;;;;;;;;;;5026105;28;20046;-71
2022/09/01 03:14:12;;;;;;;4.18;1.83;;;;;;;;;;5021883;28;20049;-71
2022/09/01 03:16:42;;;;;;;2.28;1.52;;;;;;;;;;5021334;28;20058;-71
2022/09/01 03:19:10;;;;;;;5.00;2.75;;;;;;;;;;5025292;28;20052;-71
2022/09/01 03:21:40;;;;;;;4.32;1.40;;;;;;;;;;5027692;28;20061;-72
2022/09/01 03:24:09;;;;;;;6.47;2.70;;;;;;;;;;5027164;28;20132;-71
2022/09/01 03:26:37;;;;;;;3.60;2.17;;;;;;;;;;5026379;28;20080;-71
2022/09/01 03:29:06;;;;;;;3.28;1.88;;;;;;;;;;5026250;28;20140;-71
2022/09/01 03:31:34;;;;;;;2.78;1.63;;;;;;;;;;5023678;28;20046;-71
2022/09/01 03:34:04;;;;;;;3.50;1.85;;;;;;;;;;5030095;28;20046;-71
2022/09/01 03:36:33;;;;;;;2.80;1.35;;;;;;;;;;5030616;28;20045;-71
2022/09/01 03:39:01;;;;;;;3.85;2.13;;;;;;;;;;5025585;28;20169;-72
2022/09/01 03:41:30;;;;;;;5.00;1.75;;;;;;;;;;5040069;28;20129;-71
2022/09/01 03:43:59;;;;;;;4.13;2.22;;;;;;;;;;5031125;28;20140;-71
2022/09/01 03:46:29;;;;;;;2.75;1.27;;;;;;;;;;5028887;28;20445;-71
2022/09/01 03:49:06;;;;;;;2.10;1.45;;;;;;;;;;5029282;28;20045;-71
2022/09/01 03:51:37;;;;;;;4.72;1.98;;;;;;;;;;5034459;28;20108;-71
2022/09/01 03:54:06;;;;;;;2.47;1.45;;;;;;;;;;5027180;28;20045;-71
2022/09/01 03:56:34;;;;;;;2.10;1.70;;;;;;;;;;5029655;28;20045;-71
2022/09/01 03:59:02;;;;;;;5.03;2.67;;;;;;;;;;5030292;28;20132;-70
2022/09/01 04:01:40;;;;;;;2.92;1.60;;;;;;;;;;5025347;28;20080;-71
2022/09/01 04:04:12;;;;;;;2.37;1.43;;;;;;;;;;5027625;28;20080;-71
2022/09/01 04:06:41;;;;;;;2.35;1.15;;;;;;;;;;5029007;28;20136;-71
2022/09/01 04:09:09;;;;;;;2.95;1.67;;;;;;;;;;5031181;28;20588;-71
2022/09/01 04:11:39;;;;;;;2.85;1.17;;;;;;;;;;5028114;28;20852;-71
2022/09/01 04:14:13;;;;;;;2.85;1.88;;;;;;;;;;5027074;28;20049;-71
2022/09/01 04:19:29;;;;;;;2.22;1.02;;;;;;;;;;5022701;28;20140;-72
2022/09/01 04:21:59;;;;;;;3.03;1.98;;;;;;;;;;5028186;28;20079;-71
2022/09/01 04:24:28;;;;;;;2.35;1.50;;;;;;;;;;5028259;28;20037;-71
2022/09/01 04:26:57;;;;;;;2.30;1.15;;;;;;;;;;5027616;28;20073;-71
2022/09/01 04:29:27;;;;;;;1.85;1.25;;;;;;;;;;5021577;28;20612;-71
2022/09/01 04:31:56;;;;;;;2.13;1.40;;;;;;;;;;5023664;28;20575;-71
2022/09/01 04:34:25;;;;;;;3.15;1.50;;;;;;;;;;5031263;28;20128;-71
2022/09/01 04:36:56;;;;;;;2.85;1.77;;;;;;;;;;5024584;28;20457;-71
2022/09/01 04:39:27;;;;;;;2.13;1.33;;;;;;;;;;5034812;28;20652;-71
2022/09/01 04:41:55;;;;;;;1.25;0.77;;;;;;;;;;5020674;28;20071;-71
2022/09/01 04:44:24;;;;;;;4.88;1.85;;;;;;;;;;5023109;28;20057;-72
2022/09/01 04:46:54;;;;;;;3.33;1.85;;;;;;;;;;5021549;28;20489;-72
2022/09/01 04:49:25;;;;;;;1.88;0.77;;;;;;;;;;5019663;28;20168;-72
2022/09/01 04:51:53;;;;;;;2.28;1.23;;;;;;;;;;5017399;28;20136;-71
2022/09/01 04:54:23;;;;;;;1.77;1.33;;;;;;;;;;5022584;28;20085;-71
2022/09/01 04:56:53;;;;;;;1.52;1.10;;;;;;;;;;5023328;28;20144;-71
2022/09/01 04:59:23;;;;;;;1.75;0.90;;;;;;;;;;5019597;28;20045;-71
2022/09/01 05:01:53;;;;;;;2.45;1.63;;;;;;;;;;5020844;28;20145;-71
2022/09/01 05:04:23;;;;;;;1.90;1.02;;;;;;;;;;5017496;28;20258;-71
2022/09/01 05:06:56;;;;;;;2.38;1.40;;;;;;;;;;5027297;28;20049;-71
2022/09/01 05:09:27;;;;;;;3.58;1.88;;;;;;;;;;5015758;28;20478;-72
2022/09/01 05:11:57;;;;;;;2.88;1.40;;;;;;;;;;5016509;28;20137;-71
2022/09/01 05:14:25;;;;;;;2.15;1.40;;;;;;;;;;5020474;28;20116;-72
2022/09/01 05:16:57;;;;;;;2.60;1.50;;;;;;;;;;5019065;28;20128;-71
2022/09/01 05:19:27;;;;;;;2.10;1.30;;;;;;;;;;5018117;28;20061;-71
2022/09/01 05:21:57;;;;;;;1.50;1.00;;;;;;;;;;5020350;28;20053;-71
2022/09/01 05:24:29;;;;;;;8.20;1.50;;;;;;;;;;5014511;28;20046;-71
2022/09/01 05:26:59;;;;;;;2.50;1.55;;;;;;;;;;5014410;28;20074;-70
2022/09/01 05:29:28;;;;;;;1.92;1.17;;;;;;;;;;5011971;28;20049;-71
2022/09/01 05:31:57;;;;;;;2.85;1.55;;;;;;;;;;5015986;28;20056;-71
2022/09/01 05:34:28;;;;;;;1.95;1.13;;;;;;;;;;5017914;28;20054;-70
2022/09/01 05:36:58;;;;;;;4.22;1.75;;;;;;;;;;5018747;28;20129;-71
2022/09/01 05:39:28;;;;;;;3.35;1.48;;;;;;;;;;5018519;28;20041;-71
2022/09/01 05:42:00;;;;;;;2.42;1.33;;;;;;;;;;5015613;28;20077;-71
2022/09/01 05:44:28;;;;;;;2.22;1.52;;;;;;;;;;5018458;28;20128;-71
2022/09/01 05:46:59;;;;;;;2.95;1.23;;;;;;;;;;5017208;28;20068;-70
2022/09/01 05:49:30;;;;;;;1.33;0.90;;;;;;;;;;5017676;28;20105;-71
2022/09/01 05:51:59;;;;;;;2.70;1.33;;;;;;;;;;5028872;28;20081;-71
2022/09/01 05:54:29;;;;;;;2.65;1.40;;;;;;;;;;5026575;28;20096;-71
2022/09/01 05:56:57;;;;;;;0.95;0.88;;;;;;;;;;5027443;28;20080;-71
2022/09/01 05:59:52;;;;;;;1.40;0.90;;;;;;;;;;5031436;28;20048;-71
2022/09/01 06:02:21;;;;;;;1.80;1.27;;;;;;;;;;5026398;28;20452;-71
2022/09/01 06:04:54;;;;;;;1.55;0.82;;;;;;;;;;5028122;28;20049;-71
2022/09/01 06:07:27;;;;;;;2.60;1.67;;;;;;;;;;5027928;28;20543;-71
2022/09/01 06:09:58;;;;;;;2.53;1.52;;;;;;;;;;5027285;28;20349;-71
2022/09/01 06:12:27;;;;;;;2.13;1.45;;;;;;;;;;5023810;28;20111;-72
2022/09/01 06:14:57;;;;;;;6.82;2.28;;;;;;;;;;5020410;28;20126;-72
2022/09/01 06:17:26;;;;;;;3.00;1.80;;;;;;;;;;5024124;28;20050;-72
2022/09/01 06:19:55;;;;;;;2.58;1.63;;;;;;;;;;5029702;28;20045;-72
2022/09/01 06:22:24;;;;;;;2.05;1.20;;;;;;;;;;5028248;28;20134;-72
2022/09/01 06:24:53;;;;;;;3.20;1.67;;;;;;;;;;5025240;28;20135;-72
2022/09/01 06:27:30;;;;;;;1.45;1.08;;;;;;;;;;5019441;28;20057;-72
2022/09/01 06:29:58;;;;;;;2.20;1.15;;;;;;;;;;5030774;28;20095;-72
2022/09/01 06:32:27;;;;;;;3.05;1.08;;;;;;;;;;5024915;28;20034;-72
2022/09/01 06:34:59;;;;;;;4.22;1.98;;;;;;;;;;5030193;28;20049;-72
2022/09/01 06:37:27;;;;;;;4.30;1.45;;;;;;;;;;5025228;28;20401;-72
2022/09/01 06:39:56;;;;;;;2.83;1.42;;;;;;;;;;5026692;28;20103;-72
2022/09/01 06:42:25;;;;;;;4.70;1.38;;;;;;;;;;5030339;28;20088;-72
2022/09/01 06:44:55;;;;;;;2.10;1.55;;;;;;;;;;5026236;28;20045;-73
2022/09/01 06:47:27;;;;;;;2.80;1.15;;;;;;;;;;5029041;28;20069;-73
2022/09/01 06:49:57;;;;;;;1.85;1.63;;;;;;;;;;5032255;28;20103;-72
2022/09/01 06:52:26;;;;;;;6.65;3.28;;;;;;;;;;5025342;28;20060;-73
2022/09/01 06:54:56;;;;;;;2.65;1.38;;;;;;;;;;5024055;28;20047;-73
2022/09/01 06:57:26;;;;;;;3.55;1.85;;;;;;;;;;5023936;28;20136;-72
2022/09/01 07:00:19;;;;;;;3.08;1.80;;;;;;;;;;5031111;28;20107;-72
2022/09/01 07:02:49;;;;;;;2.40;1.65;;;;;;;;;;5029896;28;20119;-72
2022/09/01 07:05:20;;;;;;;3.30;1.83;;;;;;;;;;5024679;28;20049;-72
2022/09/01 07:08:09;;;;;;;4.72;1.75;;;;;;;;;;5023214;28;20053;-72
2022/09/01 07:10:44;;;;;;;0.98;0.80;;;;;;;;;;5032034;28;20048;-72
2022/09/01 07:13:33;;;;;;;2.22;1.55;;;;;;;;;;5025516;28;20084;-72
2022/09/01 07:16:08;;;;;;;3.05;2.13;;;;;;;;;;5029113;28;20161;-73
2022/09/01 07:18:59;;;;;;;1.97;1.13;;;;;;;;;;5024032;28;20136;-72
2022/09/01 07:21:28;;;;;;;1.65;1.00;;;;;;;;;;5031845;28;20563;-72
2022/09/01 07:24:09;;;;;;;1.13;1.02;;;;;;;;;;5030514;28;20059;-72
2022/09/01 07:26:41;;;;;;;2.53;1.48;;;;;;;;;;5026382;28;20053;-72
2022/09/01 07:29:15;;;;;;;3.25;2.00;;;;;;;;;;5027741;28;20049;-71
2022/09/01 07:31:45;;;;;;;2.58;1.60;;;;;;;;;;5023466;28;20064;-72
2022/09/01 07:34:17;;;;;;;3.75;1.45;;;;;;;;;;5026335;28;20080;-71
2022/09/01 07:37:06;;;;;;;2.05;1.77;;;;;;;;;;5026106;28;20054;-71
2022/09/01 07:39:54;;;;;;;3.42;2.00;;;;;;;;;;5023629;28;20057;-73
2022/09/01 07:42:23;;;;;;;2.00;1.50;;;;;;;;;;5023841;28;20567;-74
2022/09/01 07:45:13;;;;;;;2.47;1.42;;;;;;;;;;5025595;28;20045;-72
2022/09/01 07:48:01;;;;;;;2.15;1.77;;;;;;;;;;5025415;28;20049;-73
2022/09/01 07:50:31;;;;;;;2.72;1.58;;;;;;;;;;5022870;28;20061;-74
2022/09/01 07:53:21;;;;;;;2.33;1.00;;;;;;;;;;5022632;28;20132;-74
2022/09/01 07:55:50;;;;;;;2.30;1.48;;;;;;;;;;5029266;28;20103;-74
2022/09/01 07:58:20;;;;;;;5.57;2.40;;;;;;;;;;5023908;28;20050;-74
2022/09/01 08:00:50;;;;;;;4.97;2.10;;;;;;;;;;5025836;28;20050;-74
2022/09/01 08:03:21;;;;;;;2.58;1.63;;;;;;;;;;5027171;28;20136;-74
2022/09/01 08:05:54;;;;;;;1.73;1.10;;;;;;;;;;5024014;28;20058;-73
2022/09/01 08:08:22;;;;;;;3.78;2.10;;;;;;;;;;5029078;28;20049;-74
2022/09/01 08:10:56;;;;;;;1.65;1.52;;;;;;;;;;5029081;28;20053;-72
2022/09/01 08:13:33;;;;;;;1.60;1.05;;;;;;;;;;5029358;28;20067;-73
2022/09/01 08:16:08;;;;;;;1.88;0.95;;;;;;;;;;5019796;28;20140;-72
2022/09/01 08:18:47;;;;;;;2.30;1.48;;;;;;;;;;5018058;28;20519;-73
2022/09/01 08:21:20;;;;;;;2.03;1.35;;;;;;;;;;5021617;28;20111;-73
2022/09/01 08:23:50;;;;;;;1.50;1.35;;;;;;;;;;5017107;28;20050;-73
2022/09/01 08:26:20;;;;;;;4.47;1.48;;;;;;;;;;5022943;28;20149;-72
2022/09/01 08:28:48;;;;;;;1.45;1.30;;;;;;;;;;5019806;28;20572;-72
2022/09/01 08:31:23;;;;;;;3.13;1.15;;;;;;;;;;5022856;28;20192;-73
2022/09/01 08:33:54;;;;;;;2.50;1.10;;;;;;;;;;5020852;28;20060;-72
2022/09/01 08:36:23;;;;;;;2.13;1.42;;;;;;;;;;5016638;28;20072;-72
2022/09/01 08:38:53;;;;;;;2.78;1.58;;;;;;;;;;5015804;28;20053;-73
2022/09/01 08:41:26;;;;;;;1.65;1.25;;;;;;;;;;5020599;28;20057;-73
2022/09/01 08:44:03;;;;;;;2.22;1.77;;;;;;;;;;5020001;28;20049;-73
2022/09/01 08:46:34;;;;;;;1.67;1.15;;;;;;;;;;5012858;28;20041;-73
2022/09/01 08:49:08;;;;;;;2.25;1.20;;;;;;;;;;5016540;28;20045;-73
2022/09/01 08:51:54;;;;;;;3.10;1.30;;;;;;;;;;5023405;28;20053;-73
2022/09/01 08:54:25;;;;;;;3.10;1.70;;;;;;;;;;5019593;28;20054;-73
2022/09/01 08:57:01;;;;;;;2.55;1.02;;;;;;;;;;5008436;28;20061;-72
2022/09/01 08:59:30;;;;;;;2.10;1.17;;;;;;;;;;5008859;28;20049;-72
2022/09/01 09:02:02;;;;;;;2.22;1.80;;;;;;;;;;5004358;28;20064;-72
2022/09/01 09:04:48;;;;;;;1.75;1.10;;;;;;;;;;5008901;28;20045;-72
2022/09/01 09:07:23;;;;;;;1.35;1.00;;;;;;;;;;5007752;28;20410;-72
2022/09/01 09:09:53;;;;;;;2.08;1.85;;;;;;;;;;5004919;28;20060;-73
2022/09/01 09:12:29;;;;;;;1.42;1.27;;;;;;;;;;5008361;28;20049;-74
2022/09/01 09:15:10;;;;;;;2.58;1.67;;;;;;;;;;5006934;28;20569;-73
2022/09/01 09:17:42;;;;;;;2.65;1.63;;;;;;;;;;5021924;28;20104;-73
2022/09/01 09:20:12;;;;;;;1.92;1.38;;;;;;;;;;5021557;28;20056;-74
2022/09/01 09:22:41;;;;;;;1.83;1.42;;;;;;;;;;5021500;28;20148;-73
2022/09/01 09:25:11;;;;;;;3.03;1.45;;;;;;;;;;5031904;28;20102;-73
2022/09/01 09:27:40;;;;;;;2.95;2.38;;;;;;;;;;5023307;28;20129;-72
2022/09/01 09:30:11;;;;;;;6.55;1.70;;;;;;;;;;5022282;28;20917;-73
2022/09/01 09:32:45;;;;;;;3.63;1.80;;;;;;;;;;5026484;28;20099;-73
2022/09/01 09:35:36;;;;;;;2.42;1.65;;;;;;;;;;5023829;28;20080;-73
2022/09/01 09:38:22;;;;;;;1.65;1.45;;;;;;;;;;5019684;28;20552;-72
2022/09/01 09:40:59;;;;;;;1.98;1.30;;;;;;;;;;5025808;28;20394;-72
2022/09/01 09:43:48;;;;;;;4.60;1.55;;;;;;;;;;5013105;28;20053;-72
2022/09/01 09:46:25;;;;;;;1.67;1.23;;;;;;;;;;5014805;28;20069;-72
2022/09/01 09:49:10;;;;;;;2.72;1.05;;;;;;;;;;5022367;28;20049;-72
2022/09/01 09:51:41;;;;;;;2.22;1.33;;;;;;;;;;5022524;28;20056;-73
2022/09/01 09:54:14;;;;;;;1.20;1.05;;;;;;;;;;5020537;28;20045;-73
2022/09/01 09:56:44;;;;;;;1.23;1.05;;;;;;;;;;5009109;28;20056;-73
2022/09/01 09:59:20;;;;;;;1.42;0.90;;;;;;;;;;5001490;28;20876;-73
2022/09/01 10:02:17;;;;;;;2.08;0.70;;;;;;;;;;4996118;28;20265;-73
2022/09/01 10:04:50;;;;;;;1.35;1.05;;;;;;;;;;4993666;28;20461;-73
2022/09/01 10:07:26;;;;;;;1.25;1.15;;;;;;;;;;5012085;28;20132;-73
2022/09/01 10:09:55;;;;;;;1.75;1.17;;;;;;;;;;5018664;28;20041;-73
2022/09/01 10:12:24;;;;;;;1.42;1.00;;;;;;;;;;5016178;28;20049;-74
2022/09/01 10:14:55;;;;;;;0.93;0.68;;;;;;;;;;5026654;28;20584;-73
2022/09/01 10:17:26;;;;;;;1.75;1.15;;;;;;;;;;4998243;28;20046;-73
2022/09/01 10:19:56;;;;;;;1.55;1.10;;;;;;;;;;5001695;28;20069;-72
2022/09/01 10:22:26;;;;;;;1.65;0.70;;;;;;;;;;4995964;28;20049;-73
2022/09/01 10:24:55;;;;;;;1.15;0.85;;;;;;;;;;4999430;28;20065;-73
2022/09/01 10:27:25;;;;;;;0.80;0.77;;;;;;;;;;5023985;28;20140;-73
2022/09/01 10:29:57;;;;;;;2.80;1.05;;;;;;;;;;5020961;28;20053;-73
2022/09/01 10:32:46;;;;;;;1.02;0.60;;;;;;;;;;5023113;28;20049;-74
2022/09/01 10:35:23;;;;;;;1.67;1.15;;;;;;;;;;5023477;28;20042;-73
2022/09/01 10:37:54;;;;;;;0.68;0.60;;;;;;;;;;5026727;28;20077;-74
2022/09/01 10:40:39;;;;;;;2.30;1.60;;;;;;;;;;5020857;28;20117;-73
2022/09/01 10:43:34;;;;;;;1.10;0.95;;;;;;;;;;5014484;28;20041;-74
2022/09/01 10:46:09;;;;;;;1.45;1.00;;;;;;;;;;5023133;28;20038;-73
2022/09/01 10:48:43;;;;;;;1.33;0.52;;;;;;;;;;5017029;28;20045;-73
2022/09/01 10:51:40;;;;;;;0.80;0.70;;;;;;;;;;5016844;28;20045;-73
2022/09/01 10:54:33;;;;;;;4.07;1.10;;;;;;;;;;5022516;28;20080;-74
2022/09/01 10:57:09;;;;;;;0.98;0.90;;;;;;;;;;5009738;28;20559;-73
2022/09/01 10:59:39;;;;;;;1.08;0.95;;;;;;;;;;5025365;28;20041;-73
2022/09/01 11:02:23;;;;;;;0.98;0.88;;;;;;;;;;5020311;28;20050;-73
2022/09/01 11:05:15;;;;;;;0.63;0.50;;;;;;;;;;5020216;28;20053;-73
2022/09/01 11:07:45;;;;;;;1.23;0.80;;;;;;;;;;5020190;28;20416;-73
2022/09/01 11:10:36;;;;;;;0.90;0.65;;;;;;;;;;5022497;28;20304;-74
2022/09/01 11:13:38;;;;;;;0.82;0.75;;;;;;;;;;5028257;28;20080;-74
2022/09/01 11:16:27;;;;;;;0.40;0.40;;;;;;;;;;4939842;28;20082;-73
2022/09/01 11:19:33;;;;;;;0.52;0.47;;;;;;;;;;4919662;29;20218;-72
2022/09/01 11:22:25;;;;;;;1.70;0.88;;;;;;;;;;4995552;28;20561;-73
2022/09/01 11:25:08;;;;;;;1.48;0.68;;;;;;;;;;4984160;28;20054;-73
2022/09/01 11:27:39;;;;;;;;;;;;;;;;;;5023749;28;20065;-72
2022/09/01 11:30:09;;;;;;;0.43;0.40;;;;;;;;;;5026485;28;19925;-73
2022/09/01 11:32:39;;;;;;;0.88;0.68;;;;;;;;;;5024107;28;20107;-73
2022/09/01 11:35:16;;;;;;;1.20;0.90;;;;;;;;;;5025902;28;20057;-72
2022/09/01 11:37:48;;;;;;;2.42;0.85;;;;;;;;;;5004366;28;20483;-72
2022/09/01 11:40:21;;;;;;;0.90;0.60;;;;;;;;;;5003384;28;20586;-73
2022/09/01 11:42:53;;;;;;;0.60;0.60;;;;;;;;;;5004151;28;20097;-73
2022/09/01 11:45:27;;;;;;;0.43;0.43;;;;;;;;;;5006055;28;20110;-73
2022/09/01 11:48:00;;;;;;;1.63;0.50;;;;;;;;;;5027054;28;20045;-72
2022/09/01 11:50:30;;;;;;;0.60;0.50;;;;;;;;;;5019914;28;20136;-72
2022/09/01 11:53:01;;;;;;;0.70;0.70;;;;;;;;;;5023719;28;20045;-73
2022/09/01 11:55:34;;;;;;;1.40;0.77;;;;;;;;;;5031861;28;20085;-73
2022/09/01 11:58:03;;;;;;;0.68;0.60;;;;;;;;;;5029862;28;20673;-73
2022/09/01 12:00:32;;;;;;;1.25;0.90;;;;;;;;;;5030362;28;20136;-73
2022/09/01 12:03:02;;;;;;;0.52;0.50;;;;;;;;;;5031184;28;20053;-73
2022/09/01 12:05:33;;;;;;;1.33;0.80;;;;;;;;;;5028001;28;20054;-73
2022/09/01 12:08:02;;;;;;;2.63;0.63;;;;;;;;;;5027984;28;20136;-72
2022/09/01 12:10:33;;;;;;;0.88;0.80;;;;;;;;;;5032498;28;20049;-72
2022/09/01 12:13:03;;;;;;;1.80;0.70;;;;;;;;;;5031796;28;20046;-72
2022/09/01 12:15:33;;;;;;;0.77;0.45;;;;;;;;;;5031633;28;20081;-73
2022/09/01 12:18:17;;;;;;;1.08;0.82;;;;;;;;;;5025748;28;20068;-72
2022/09/01 12:20:46;;;;;;;0.50;0.50;;;;;;;;;;5026401;28;20085;-72
2022/09/01 12:23:24;;;;;;;1.20;0.83;;;;;;;;;;5029747;28;20042;-72
2022/09/01 12:25:54;;;;;;;0.88;0.80;;;;;;;;;;5031365;28;20053;-72
2022/09/01 12:28:24;;;;;;;0.50;0.50;;;;;;;;;;5027286;28;20088;-72
2022/09/01 12:30:58;;;;;;;3.58;0.77;;;;;;;;;;5028765;28;20053;-73
2022/09/01 12:33:28;;;;;;;0.77;0.60;;;;;;;;;;5030622;28;20103;-73
2022/09/01 12:36:12;;;;;;;1.33;0.90;;;;;;;;;;5023642;28;20072;-73
2022/09/01 12:38:40;;;;;;;1.00;0.50;;;;;;;;;;5031313;28;20452;-72
2022/09/01 12:41:23;;;;;;;2.10;1.00;;;;;;;;;;5032787;28;20441;-72
2022/09/01 12:43:52;;;;;;;0.93;0.70;;;;;;;;;;5034059;28;20046;-73
2022/09/01 12:46:41;;;;;;;4.28;0.77;;;;;;;;;;5026078;28;20049;-72
2022/09/01 12:49:23;;;;;;;3.28;0.77;;;;;;;;;;5022390;28;20053;-72
2022/09/01 12:52:13;;;;;;;1.00;0.65;;;;;;;;;;5028857;28;20050;-72
2022/09/01 12:54:42;;;;;;;0.70;0.60;;;;;;;;;;5026954;28;20076;-72
2022/09/01 12:57:11;;;;;;;0.80;0.75;;;;;;;;;;5032623;28;20433;-72
2022/09/01 12:59:39;;;;;;;0.50;0.45;;;;;;;;;;5031822;28;20088;-73
2022/09/01 13:02:23;;;;;;;1.45;0.55;;;;;;;;;;5025825;28;20049;-72
2022/09/01 13:04:53;;;;;;;2.15;0.70;;;;;;;;;;5022337;28;20068;-72
2022/09/01 13:07:21;;;;;;;0.70;0.68;;;;;;;;;;5025721;28;20057;-72
2022/09/01 13:09:50;;;;;;;0.50;0.50;;;;;;;;;;5029215;28;20386;-72
2022/09/01 13:12:20;;;;;;;0.40;0.40;;;;;;;;;;5027848;28;20080;-73
2022/09/01 13:14:49;;;;;;;0.60;0.60;;;;;;;;;;5030271;28;20057;-73
2022/09/01 13:17:19;;;;;;;0.52;0.50;;;;;;;;;;5028965;28;20128;-72
2022/09/01 13:19:48;;;;;;;1.17;0.73;;;;;;;;;;5025902;28;20049;-72
2022/09/01 13:22:18;;;;;;;1.02;0.60;;;;;;;;;;5021844;28;20096;-73
2022/09/01 13:24:46;;;;;;;0.57;0.50;;;;;;;;;;5020985;28;20132;-72
2022/09/01 13:27:15;;;;;;;1.27;0.68;;;;;;;;;;5017702;28;20412;-72
2022/09/01 13:29:49;;;;;;;1.50;0.90;;;;;;;;;;5013638;28;20053;-72
2022/09/01 13:32:18;;;;;;;1.02;0.80;;;;;;;;;;5019136;28;20053;-72
2022/09/01 13:34:50;;;;;;;0.65;0.43;;;;;;;;;;5025397;28;20053;-72
2022/09/01 13:37:21;;;;;;;0.73;0.55;;;;;;;;;;5019102;28;20068;-72
2022/09/01 13:39:50;;;;;;;0.60;0.50;;;;;;;;;;5018973;28;20067;-72
2022/09/01 13:42:18;;;;;;;0.52;0.50;;;;;;;;;;5017790;28;20046;-73
2022/09/01 13:44:47;;;;;;;0.82;0.40;;;;;;;;;;5023236;28;20116;-73
2022/09/01 13:47:23;;;;;;;0.52;0.50;;;;;;;;;;5025412;28;20509;-72
2022/09/01 13:49:59;;;;;;;0.80;0.60;;;;;;;;;;5026667;28;20053;-71
2022/09/01 13:52:40;;;;;;;1.40;0.60;;;;;;;;;;5018075;28;20073;-72
2022/09/01 13:55:10;;;;;;;0.77;0.57;;;;;;;;;;5021294;28;20050;-73
2022/09/01 13:57:39;;;;;;;0.40;0.40;;;;;;;;;;5029431;28;20061;-72
2022/09/01 14:00:09;;;;;;;1.42;0.68;;;;;;;;;;5021660;28;20045;-72
2022/09/01 14:02:38;;;;;;;2.15;0.75;;;;;;;;;;5020901;28;20056;-72
2022/09/01 14:05:07;;;;;;;0.88;0.80;;;;;;;;;;5023244;28;20585;-72
2022/09/01 14:07:36;;;;;;;0.50;0.43;;;;;;;;;;5017636;28;20049;-72
2022/09/01 14:10:07;;;;;;;0.82;0.60;;;;;;;;;;5017195;28;20044;-72
2022/09/01 14:12:36;;;;;;;0.88;0.70;;;;;;;;;;5026710;28;20041;-72
2022/09/01 14:15:05;;;;;;;0.80;0.70;;;;;;;;;;5027273;28;20041;-71
2022/09/01 14:17:46;;;;;;;2.80;0.40;;;;;;;;;;5032197;28;20057;-72
2022/09/01 14:20:17;;;;;;;0.98;0.88;;;;;;;;;;5028157;28;20054;-72
2022/09/01 14:22:45;;;;;;;0.35;0.35;;;;;;;;;;5023918;28;20408;-72
2022/09/01 14:25:16;;;;;;;0.80;0.75;;;;;;;;;;5025821;28;20065;-72
2022/09/01 14:27:44;;;;;;;0.77;0.60;;;;;;;;;;5026447;28;20048;-72
2022/09/01 14:30:16;;;;;;;0.40;0.40;;;;;;;;;;5032198;28;20049;-72
2022/09/01 14:32:46;;;;;;;1.40;0.73;;;;;;;;;;5029588;28;20096;-72
2022/09/01 14:35:15;;;;;;;3.30;0.90;;;;;;;;;;5027617;28;20512;-72
2022/09/01 14:37:44;;;;;;;0.73;0.50;;;;;;;;;;5023176;28;20551;-72
2022/09/01 14:40:14;;;;;;;1.05;0.95;;;;;;;;;;5025919;28;20041;-72
2022/09/01 14:42:47;;;;;;;0.65;0.63;;;;;;;;;;5023630;28;20061;-72
2022/09/01 14:45:17;;;;;;;1.48;0.50;;;;;;;;;;5024525;28;20049;-73
2022/09/01 14:47:46;;;;;;;0.40;0.40;;;;;;;;;;5028129;28;20057;-72
2022/09/01 14:50:15;;;;;;;0.40;0.40;;;;;;;;;;5034209;28;20045;-73
2022/09/01 14:52:51;;;;;;;0.50;0.38;;;;;;;;;;5027705;28;20061;-71
2022/09/01 14:55:20;;;;;;;0.50;0.50;;;;;;;;;;5037383;28;20079;-72
2022/09/01 14:57:50;;;;;;;0.45;0.32;;;;;;;;;;5031243;28;20057;-73
2022/09/01 15:00:18;;;;;;;0.85;0.70;;;;;;;;;;5020902;28;20057;-71
2022/09/01 15:02:47;;;;;;;0.63;0.40;;;;;;;;;;5017609;28;20806;-73
2022/09/01 15:05:15;;;;;;;0.45;0.45;;;;;;;;;;5022560;28;20050;-72
2022/09/01 15:07:44;;;;;;;0.70;0.55;;;;;;;;;;5027338;28;20045;-72
2022/09/01 15:10:14;;;;;;;0.52;0.52;;;;;;;;;;5027000;28;20069;-72
2022/09/01 15:12:52;;;;;;;0.35;0.35;;;;;;;;;;5028919;28;20099;-74
2022/09/01 15:15:21;;;;;;;1.65;0.45;;;;;;;;;;5023655;28;20088;-72
2022/09/01 15:17:49;;;;;;;1.08;0.38;;;;;;;;;;5027303;28;20131;-72
2022/09/01 15:23:04;;;;;;;0.45;0.38;;;;;;;;;;5025848;28;20088;-72